Main page
METAR-TAF:

METAR-TAF

Airports :

N'Djamena, Chad

N'Djamena International Airport

latitude: 12-08N, longitude: 015-02E, elevation: 295 m

Current weather observation

The report was made 1 hour and 11 minutes ago, at 06:00 UTC
Wind 4 kt from the West/Southwest
Temperature 30°C
Humidity 31%
Pressure 1007 hPa
Visibility: 6000 m

METAR: FTTJ 230600Z 24004KT 6000 NSC 30/11 Q1007 NOSIG

Time: 08:11 (07:11 UTC)

Forecast

The report was made 2 hours and 11 minutes ago, at 05:00 UTC
Forecast valid from 23 at 06 UTC to 24 at 12 UTC
Wind 4 kt from variable directions
Visibility: 7000 m
Temporary
from 23 at 06 UTC to 23 at 01 UTC
Wind 10 kt from the North/Northeast
Temporary
from 24 at 06 UTC to 24 at 12 UTC
Wind 10 kt from the East

TAF: FTTJ 230500Z 2306/2412 VRB04KT 7000 NSC TEMPO 2306/23015 03010KT TEMPO 2406/2412 08010KT

Weather observations and forecasts of more than 4000 airports (METAR and TAF reports).

The available stations are represented by yellow and red dots on the map.

Hover mouse over dot to see the name of the station.

Then click to see weather observations and forecasts.

To change the map : click on the green buttons with a black cross to zoom in, on the green button with a dash to zoom out, or on the green arrows for adjacent maps.


METAR-TAF: